Santa Maria, Brazil

7:35 AM BRST on October 23, 2014 (GMT -0200)
Santa Maria | Change Station
CLOSE
Current Station
Airport
Location: Santa Maria Airport,
Elevation: 279 ft
Nearby Weather Stations

Elev 279 ft 29.71 °S, 53.69 °W | Updated 35 minutes ago

Partly Cloudy
Partly Cloudy
61 °F
Feels Like 61 °F
N
6
Wind Variable Wind from SE

Today
High -- | Low -- °F
--% Chance of Precip.
Yesterday
High -- | Low -- °F
Precip. -- in
6:48 AM 7:49 PM
Waning Crescent, 0% visible
Pressure 30.01 in
Visibility 6.2 miles
Clouds Few 100 ft
Dew Point 59 °F
Humidity 94%
Rainfall 0.00 in
Snow Depth Not available.
UV 0 out of 12
Pollen Not available.
Air Quality Not available.
Flu Activity Not available.
METAR SBSM 230900Z 14005KT 110V170 9999 FEW001 16/15 Q1016

More Conditions Fewer Conditions

Pressure 30.01 in
Visibility 6.2 miles
Clouds Few 100 ft
Dew Point 59 °F
Humidity 94%
Rainfall 0.00 in
Snow Depth Not available.
UV 0 out of 12
Pollen Not available.
Air Quality Not available.
Flu Activity Not available.
METAR SBSM 230900Z 14005KT 110V170 9999 FEW001 16/15 Q1016

More Conditions Fewer Conditions

10-Day Weather Forecast

Almanac

Astronomy

Oct. 23, 2014 Rise Set
Actual Time 6:48 AM BRST 7:49 PM BRST
Civil Twilight 6:24 AM BRST 8:14 PM BRST
Nautical Twilight 5:54 AM BRST 8:43 PM BRST
Astronomical Twilight 5:24 AM BRST 9:13 PM BRST
Moon 6:35 AM BRST 7:44 PM BRST
Length of Visible Light 13h 50m
Length of Day
13h 01m
Tomorrow will be 1m 42s longer.
Waning Crescent, 0% of the Moon is Illuminated
Today
Waning Crescent
Oct 23
New
Oct 30
First Quarter
Nov 6
Full
Nov 14
Last Quarter

Yesterday's Extremes

Country Highs Country Lows

Community

WunderPhotos

Upload Photos

1,764,199 photos uploaded!

Nearby

Snow Depth

Not available.

Earthquake Activity

City Distance Mag. Time & Date
No recent earthquake activity has been reported nearby.
Minimum magnitude displayed is 2.5.

Coastal Water Temperatures

Place Temperature
No Stations Reporting

Nearby Weather Stations